createdAt,value
2018-12-13T00:01:08.463Z,45.81
2018-12-13T00:04:01.725Z,45.92
2018-12-13T00:06:52.097Z,46.61
2018-12-13T00:09:42.888Z,46.52
2018-12-13T00:12:33.906Z,46.50
2018-12-13T00:15:27.139Z,46.63
2018-12-13T00:18:17.604Z,46.82
2018-12-13T00:21:08.295Z,46.33
2018-12-13T00:23:59.172Z,47.13
2018-12-13T00:26:49.995Z,46.95
2018-12-13T00:29:40.297Z,47.81
2018-12-13T00:32:31.314Z,47.43
2018-12-13T00:35:22.493Z,47.84
2018-12-13T00:38:13.433Z,47.79
2018-12-13T00:41:04.320Z,47.35
2018-12-13T00:43:55.313Z,47.65
2018-12-13T00:46:45.291Z,47.78
2018-12-13T00:49:35.269Z,46.94
2018-12-13T00:52:26.274Z,46.71
2018-12-13T00:55:17.300Z,46.45
2018-12-13T00:58:08.392Z,45.98
2018-12-13T01:01:01.716Z,45.74
2018-12-13T01:03:53.508Z,45.70
2018-12-13T01:06:46.151Z,46.22
2018-12-13T01:09:37.535Z,46.30
2018-12-13T01:12:28.501Z,46.70
2018-12-13T01:15:19.337Z,47.33
2018-12-13T01:18:09.719Z,48.05
2018-12-13T01:21:01.386Z,47.54
2018-12-13T01:23:51.426Z,48.01
2018-12-13T01:26:41.538Z,47.91
2018-12-13T01:29:32.406Z,47.46
2018-12-13T01:32:22.518Z,46.50
2018-12-13T01:35:13.185Z,46.41
2018-12-13T01:38:03.338Z,46.18
2018-12-13T01:40:54.426Z,46.46
2018-12-13T01:43:45.256Z,45.93
2018-12-13T01:46:35.520Z,46.69
2018-12-13T01:49:26.421Z,46.83
2018-12-13T01:52:18.466Z,46.52
2018-12-13T01:55:09.573Z,46.38
2018-12-13T01:58:01.180Z,45.63
2018-12-13T02:00:52.461Z,45.89
2018-12-13T02:03:43.357Z,46.08
2018-12-13T02:06:33.449Z,45.71
2018-12-13T02:09:23.504Z,45.93
2018-12-13T02:12:14.415Z,45.41
2018-12-13T02:15:04.416Z,45.58
2018-12-13T02:17:55.339Z,45.77
2018-12-13T02:20:46.012Z,45.80
2018-12-13T02:23:37.023Z,45.96
2018-12-13T02:26:28.000Z,46.50
2018-12-13T02:29:18.627Z,46.47
2018-12-13T02:32:09.320Z,46.22
2018-12-13T02:35:00.410Z,46.15
2018-12-13T02:37:51.126Z,46.25
2018-12-13T02:40:41.554Z,46.32
2018-12-13T02:43:32.313Z,45.59
2018-12-13T02:46:23.414Z,46.66
2018-12-13T02:49:13.446Z,46.80
2018-12-13T02:52:04.308Z,46.94
2018-12-13T02:54:54.473Z,46.74
2018-12-13T02:57:45.338Z,46.84
2018-12-13T03:00:36.715Z,46.80
2018-12-13T03:03:27.536Z,46.07
2018-12-13T03:06:18.507Z,46.83
2018-12-13T03:09:09.521Z,47.36
2018-12-13T03:12:00.144Z,48.06
2018-12-13T03:14:51.124Z,48.57
2018-12-13T03:17:41.274Z,47.82
2018-12-13T03:20:32.184Z,47.60
2018-12-13T03:23:22.939Z,46.84
2018-12-13T03:26:13.857Z,46.74
2018-12-13T03:29:04.640Z,46.53
2018-12-13T03:31:54.933Z,46.25
2018-12-13T03:34:45.652Z,46.53
2018-12-13T03:37:35.815Z,46.71
2018-12-13T03:40:26.622Z,47.06
2018-12-13T03:43:17.979Z,46.81
2018-12-13T03:46:08.590Z,46.69
2018-12-13T03:48:59.241Z,46.29
2018-12-13T03:51:50.230Z,45.80
2018-12-13T03:54:41.219Z,45.68
2018-12-13T03:57:32.303Z,46.12
2018-12-13T04:00:23.321Z,45.64
2018-12-13T04:03:14.219Z,45.79
2018-12-13T04:06:05.136Z,44.62
2018-12-13T04:08:55.961Z,45.13
2018-12-13T04:11:46.341Z,44.24
2018-12-13T04:14:37.363Z,44.40
2018-12-13T04:17:28.542Z,45.00
2018-12-13T04:20:21.058Z,46.96
2018-12-13T04:23:12.054Z,45.47
2018-12-13T04:26:02.765Z,45.27
2018-12-13T04:28:53.897Z,46.07
2018-12-13T04:31:44.754Z,46.49
2018-12-13T04:34:35.576Z,46.08
2018-12-13T04:37:25.420Z,46.23
2018-12-13T04:40:16.198Z,45.22
2018-12-13T04:43:07.079Z,45.64
2018-12-13T04:45:57.959Z,45.02
2018-12-13T04:48:48.082Z,44.98
2018-12-13T04:51:39.289Z,45.53
2018-12-13T04:54:29.331Z,44.88
2018-12-13T04:57:21.200Z,44.97
2018-12-13T05:00:11.259Z,45.42
2018-12-13T05:03:02.238Z,45.31
2018-12-13T05:05:52.927Z,45.70
2018-12-13T05:08:44.006Z,46.33
2018-12-13T05:11:33.878Z,45.80
2018-12-13T05:14:24.127Z,46.20
2018-12-13T05:17:14.821Z,47.46
2018-12-13T05:20:05.966Z,47.81
2018-12-13T05:22:56.647Z,48.36
2018-12-13T05:25:47.549Z,47.66
2018-12-13T05:28:38.413Z,48.96
2018-12-13T05:31:29.238Z,48.42
2018-12-13T05:34:19.404Z,48.33
2018-12-13T05:37:10.609Z,48.90
2018-12-13T05:40:04.946Z,48.26
2018-12-13T05:42:55.180Z,48.58
2018-12-13T05:45:46.012Z,49.83
2018-12-13T05:48:36.276Z,49.88
2018-12-13T05:51:26.393Z,50.07
2018-12-13T05:54:17.401Z,50.93
2018-12-13T05:57:08.231Z,51.86
2018-12-13T05:59:59.326Z,51.76
2018-12-13T06:02:50.384Z,52.11
2018-12-13T06:05:40.937Z,53.06
2018-12-13T06:08:31.657Z,52.47
2018-12-13T06:11:22.606Z,52.84
2018-12-13T06:14:13.591Z,53.14
2018-12-13T06:17:04.624Z,53.11
2018-12-13T06:19:55.573Z,52.71
2018-12-13T06:22:46.410Z,53.21
2018-12-13T06:25:36.353Z,53.17
2018-12-13T06:28:27.139Z,53.65
2018-12-13T06:31:18.822Z,53.54
2018-12-13T06:34:09.185Z,52.28
2018-12-13T06:37:00.041Z,52.99
2018-12-13T06:39:51.063Z,52.55
2018-12-13T06:42:42.085Z,53.10
2018-12-13T06:45:33.251Z,51.47
2018-12-13T06:48:24.218Z,52.00
2018-12-13T06:51:14.456Z,52.02
2018-12-13T06:54:05.274Z,52.29
2018-12-13T06:56:56.172Z,50.91
2018-12-13T06:59:47.049Z,51.67
2018-12-13T07:02:37.295Z,51.20
2018-12-13T07:05:29.120Z,51.61
2018-12-13T07:08:20.224Z,51.33
2018-12-13T07:11:11.031Z,51.74
2018-12-13T07:14:01.200Z,52.16
2018-12-13T07:16:52.602Z,49.71
2018-12-13T07:19:42.968Z,51.31
2018-12-13T07:22:33.647Z,50.21
2018-12-13T07:25:24.010Z,50.72
2018-12-13T07:28:14.654Z,51.39
2018-12-13T07:31:04.769Z,51.26
2018-12-13T07:33:55.290Z,51.13
2018-12-13T07:36:46.182Z,49.75
2018-12-13T07:39:37.138Z,46.73
2018-12-13T07:42:27.598Z,47.36
2018-12-13T07:45:18.346Z,48.64
2018-12-13T07:48:09.877Z,50.10
2018-12-13T07:51:00.255Z,50.19
2018-12-13T07:53:50.645Z,51.85
2018-12-13T07:56:41.348Z,63.15
2018-12-13T07:59:31.536Z,66.72
2018-12-13T08:02:22.236Z,70.90
2018-12-13T08:05:13.248Z,82.36
2018-12-13T08:08:04.184Z,86.85
2018-12-13T08:10:54.850Z,89.47
2018-12-13T08:13:45.715Z,100.00
2018-12-13T08:16:35.479Z,100.00
2018-12-13T08:19:27.716Z,100.00
2018-12-13T08:22:19.671Z,100.00
2018-12-13T08:25:10.484Z,100.00
2018-12-13T08:28:01.894Z,100.00
2018-12-13T08:30:52.466Z,100.00
2018-12-13T08:33:44.390Z,100.00
2018-12-13T08:36:35.333Z,100.00
2018-12-13T08:39:25.325Z,100.00
2018-12-13T08:42:15.058Z,100.00
2018-12-13T08:45:04.774Z,100.00
2018-12-13T08:47:54.564Z,100.00
2018-12-13T08:50:44.466Z,100.00
2018-12-13T08:53:34.271Z,100.00
2018-12-13T08:56:24.570Z,100.00
2018-12-13T08:59:14.419Z,100.00
2018-12-13T09:02:04.503Z,100.00
2018-12-13T09:04:55.272Z,100.00
2018-12-13T09:07:45.068Z,100.00
2018-12-13T09:10:35.030Z,100.00
2018-12-13T09:13:24.973Z,100.00
2018-12-13T09:16:14.686Z,100.00
2018-12-13T09:19:04.755Z,100.00
2018-12-13T09:21:54.737Z,100.00
2018-12-13T09:24:44.854Z,100.00
2018-12-13T09:27:35.600Z,100.00
2018-12-13T09:30:25.514Z,100.00
2018-12-13T09:33:16.037Z,100.00
2018-12-13T09:36:05.821Z,100.00
2018-12-13T09:38:56.210Z,100.00
2018-12-13T09:41:46.507Z,100.00
2018-12-13T09:44:36.322Z,100.00
2018-12-13T09:47:26.385Z,100.00
2018-12-13T09:50:16.996Z,100.00
2018-12-13T09:53:07.422Z,100.00
2018-12-13T09:55:57.213Z,100.00
2018-12-13T09:58:47.367Z,100.00
2018-12-13T10:01:37.310Z,100.00
2018-12-13T10:04:27.608Z,100.00
2018-12-13T10:07:18.230Z,100.00
2018-12-13T10:10:08.034Z,100.00
2018-12-13T10:12:58.098Z,100.00
2018-12-13T10:15:49.118Z,100.00
2018-12-13T10:18:39.823Z,100.00
2018-12-13T10:21:29.808Z,100.00
2018-12-13T10:24:19.549Z,100.00
2018-12-13T10:27:09.811Z,100.00
2018-12-13T10:29:59.529Z,100.00
2018-12-13T10:32:49.692Z,100.00
2018-12-13T10:35:39.531Z,100.00
2018-12-13T10:38:29.778Z,100.00
2018-12-13T10:41:20.389Z,100.00
2018-12-13T10:44:11.222Z,100.00
2018-12-13T10:47:01.298Z,100.00
2018-12-13T10:49:51.268Z,100.00
2018-12-13T10:52:42.078Z,100.00
2018-12-13T10:55:33.055Z,100.00
2018-12-13T10:58:25.357Z,100.00
2018-12-13T11:01:20.725Z,100.00
2018-12-13T11:04:10.819Z,100.00
2018-12-13T11:07:01.679Z,100.00
2018-12-13T11:09:51.532Z,100.00
2018-12-13T11:12:41.427Z,100.00
2018-12-13T11:15:32.410Z,100.00
2018-12-13T11:18:23.220Z,100.00
2018-12-13T11:21:17.496Z,100.00
2018-12-13T11:24:05.740Z,100.00
2018-12-13T11:26:55.749Z,100.00
2018-12-13T11:30:52.643Z,100.00
2018-12-13T11:33:43.253Z,100.00
2018-12-13T11:36:33.925Z,100.00
2018-12-13T11:39:23.693Z,100.00
2018-12-13T11:42:13.835Z,100.00
2018-12-13T11:45:04.580Z,100.00
2018-12-13T11:47:54.529Z,100.00
2018-12-13T11:50:44.619Z,100.00
2018-12-13T11:53:35.442Z,100.00
2018-12-13T11:56:25.342Z,100.00
2018-12-13T11:59:15.246Z,100.00
2018-12-13T12:02:04.997Z,100.00
2018-12-13T12:04:55.127Z,100.00
2018-12-13T12:07:45.950Z,100.00
2018-12-13T12:10:36.034Z,100.00
2018-12-13T12:13:25.856Z,100.00
2018-12-13T12:16:16.781Z,100.00
2018-12-13T12:19:06.602Z,100.00
2018-12-13T12:21:56.426Z,100.00
2018-12-13T12:24:47.226Z,100.00
2018-12-13T12:27:37.266Z,100.00
2018-12-13T12:30:27.049Z,100.00
2018-12-13T12:33:17.198Z,100.00
2018-12-13T12:36:07.102Z,100.00
2018-12-13T12:38:57.232Z,100.00
2018-12-13T12:41:47.928Z,100.00
2018-12-13T12:44:42.208Z,100.00
2018-12-13T12:47:33.033Z,100.00
2018-12-13T12:50:22.929Z,100.00
2018-12-13T12:53:13.889Z,100.00
2018-12-13T12:56:05.907Z,100.00
2018-12-13T12:58:56.688Z,100.00
2018-12-13T13:01:46.578Z,100.00
2018-12-13T13:04:36.475Z,100.00
2018-12-13T13:07:26.598Z,100.00
2018-12-13T13:10:16.394Z,100.00
2018-12-13T13:13:06.462Z,100.00
2018-12-13T13:15:57.141Z,100.00
2018-12-13T13:18:47.444Z,100.00
2018-12-13T13:21:37.874Z,100.00
2018-12-13T13:24:28.577Z,100.00
2018-12-13T13:27:18.347Z,100.00
2018-12-13T13:30:08.945Z,100.00
2018-12-13T13:32:59.475Z,100.00
2018-12-13T13:35:49.407Z,100.00
2018-12-13T13:38:39.330Z,100.00
2018-12-13T13:41:29.462Z,100.00
2018-12-13T13:44:20.759Z,100.00
2018-12-13T13:47:11.233Z,100.00
2018-12-13T13:50:00.984Z,100.00
2018-12-13T13:52:50.909Z,100.00
2018-12-13T13:55:40.861Z,100.00
2018-12-13T13:58:31.767Z,100.00
2018-12-13T14:01:21.681Z,100.00
2018-12-13T14:04:11.674Z,100.00
2018-12-13T14:07:02.180Z,100.00
2018-12-13T14:09:52.439Z,100.00
2018-12-13T14:12:43.938Z,100.00
2018-12-13T14:15:33.937Z,100.00
2018-12-13T14:18:23.866Z,100.00
2018-12-13T14:21:14.319Z,100.00
2018-12-13T14:24:04.757Z,100.00
2018-12-13T14:26:55.062Z,100.00
2018-12-13T14:29:45.211Z,100.00
2018-12-13T14:32:35.107Z,100.00
2018-12-13T14:35:24.885Z,100.00
2018-12-13T14:38:15.186Z,100.00
2018-12-13T14:41:06.587Z,100.00
2018-12-13T14:44:18.603Z,100.00
2018-12-13T14:47:09.417Z,100.00
2018-12-13T14:49:59.249Z,100.00
2018-12-13T14:52:49.049Z,100.00
2018-12-13T14:55:39.725Z,100.00
2018-12-13T14:58:29.639Z,100.00
2018-12-13T15:01:20.261Z,100.00
2018-12-13T15:04:10.397Z,100.00
2018-12-13T15:07:00.511Z,100.00
2018-12-13T15:09:51.086Z,100.00
2018-12-13T15:12:41.453Z,100.00
2018-12-13T15:15:31.205Z,100.00
2018-12-13T15:18:21.226Z,100.00
2018-12-13T15:21:11.579Z,100.00
2018-12-13T15:24:01.510Z,100.00
2018-12-13T15:26:52.134Z,100.00
2018-12-13T15:29:42.002Z,100.00
2018-12-13T15:32:31.701Z,100.00
2018-12-13T15:35:21.580Z,100.00
2018-12-13T15:38:11.258Z,100.00
2018-12-13T15:41:01.329Z,100.00
2018-12-13T15:43:51.215Z,100.00
2018-12-13T15:46:41.225Z,100.00
2018-12-13T15:49:31.647Z,100.00
2018-12-13T15:52:22.329Z,100.00
2018-12-13T15:55:13.176Z,100.00
2018-12-13T15:58:03.756Z,100.00
2018-12-13T16:00:53.643Z,100.00
2018-12-13T16:03:44.437Z,100.00
2018-12-13T16:06:35.034Z,100.00
2018-12-13T16:09:25.192Z,100.00
2018-12-13T16:12:15.960Z,100.00
2018-12-13T16:15:07.108Z,100.00
2018-12-13T16:17:57.701Z,100.00
2018-12-13T16:20:47.463Z,100.00
2018-12-13T16:23:37.388Z,100.00
2018-12-13T16:26:27.458Z,100.00
2018-12-13T16:29:18.118Z,100.00
2018-12-13T16:32:07.973Z,100.00
2018-12-13T16:34:57.675Z,100.00
2018-12-13T16:37:47.688Z,100.00
2018-12-13T16:40:37.635Z,100.00
2018-12-13T16:43:27.884Z,100.00
2018-12-13T16:46:18.743Z,100.00
2018-12-13T16:49:10.687Z,100.00
2018-12-13T16:52:00.668Z,100.00
2018-12-13T16:54:51.567Z,100.00
2018-12-13T16:57:41.333Z,100.00
2018-12-13T17:00:31.410Z,100.00
2018-12-13T17:03:33.264Z,100.00
2018-12-13T17:06:23.130Z,100.00
2018-12-13T17:09:13.055Z,100.00
2018-12-13T17:12:03.098Z,100.00
2018-12-13T17:14:54.621Z,100.00
2018-12-13T17:17:44.802Z,100.00
2018-12-13T17:20:34.683Z,100.00
2018-12-13T17:23:25.099Z,100.00
2018-12-13T17:26:15.485Z,100.00
2018-12-13T17:29:06.022Z,100.00
2018-12-13T17:31:56.605Z,100.00
2018-12-13T17:34:46.599Z,100.00
2018-12-13T17:37:36.731Z,100.00
2018-12-13T17:40:26.725Z,100.00
2018-12-13T17:43:16.412Z,100.00
2018-12-13T17:46:07.433Z,100.00
2018-12-13T17:48:59.086Z,100.00
2018-12-13T17:51:49.878Z,100.00
2018-12-13T17:54:39.804Z,100.00
2018-12-13T17:57:30.970Z,100.00
2018-12-13T18:00:20.734Z,100.00
2018-12-13T18:03:11.664Z,100.00
2018-12-13T18:06:01.566Z,100.00
2018-12-13T18:08:51.477Z,100.00
2018-12-13T18:11:41.305Z,100.00
2018-12-13T18:14:31.446Z,100.00
2018-12-13T18:17:22.079Z,100.00
2018-12-13T18:20:12.797Z,100.00
2018-12-13T18:23:02.600Z,100.00
2018-12-13T18:25:52.522Z,100.00
2018-12-13T18:28:42.750Z,100.00
2018-12-13T18:31:32.666Z,100.00
2018-12-13T18:34:22.728Z,100.00
2018-12-13T18:37:12.560Z,100.00
2018-12-13T18:40:02.465Z,100.00
2018-12-13T18:42:53.246Z,100.00
2018-12-13T18:45:42.889Z,100.00
2018-12-13T18:48:33.187Z,100.00
2018-12-13T18:51:23.943Z,100.00
2018-12-13T18:54:13.992Z,100.00
2018-12-13T18:57:03.983Z,100.00
2018-12-13T18:59:54.118Z,100.00
2018-12-13T19:02:44.832Z,100.00
2018-12-13T19:05:34.690Z,100.00
2018-12-13T19:08:25.160Z,100.00
2018-12-13T19:11:15.547Z,100.00
2018-12-13T19:14:05.768Z,100.00
2018-12-13T19:16:56.615Z,100.00
2018-12-13T19:19:47.339Z,100.00
2018-12-13T19:22:38.230Z,100.00
2018-12-13T19:25:28.172Z,100.00
2018-12-13T19:28:18.055Z,100.00
2018-12-13T19:31:08.142Z,100.00
2018-12-13T19:33:59.006Z,100.00
2018-12-13T19:36:48.798Z,100.00
2018-12-13T19:39:38.755Z,100.00
2018-12-13T19:42:28.724Z,100.00
2018-12-13T19:45:18.683Z,100.00
2018-12-13T19:48:08.715Z,100.00
2018-12-13T19:50:59.910Z,100.00
2018-12-13T19:53:50.330Z,100.00
2018-12-13T19:56:40.492Z,100.00
2018-12-13T19:59:31.232Z,100.00
2018-12-13T20:02:23.299Z,100.00
2018-12-13T20:05:13.793Z,100.00
2018-12-13T20:08:04.619Z,100.00
2018-12-13T20:10:54.793Z,100.00
2018-12-13T20:13:45.380Z,100.00
2018-12-13T20:16:35.225Z,100.00
2018-12-13T20:19:25.103Z,100.00
2018-12-13T20:22:15.955Z,100.00
2018-12-13T20:25:07.418Z,100.00
2018-12-13T20:27:58.253Z,100.00
2018-12-13T20:30:49.097Z,100.00
2018-12-13T20:33:39.029Z,100.00
2018-12-13T20:36:28.988Z,100.00
2018-12-13T20:39:18.788Z,100.00
2018-12-13T20:42:09.798Z,100.00
2018-12-13T20:44:59.883Z,100.00
2018-12-13T20:47:50.757Z,100.00
2018-12-13T20:50:41.598Z,100.00
2018-12-13T20:53:31.762Z,100.00
2018-12-13T20:56:22.603Z,100.00
2018-12-13T20:59:12.589Z,100.00
2018-12-13T21:02:02.599Z,100.00
2018-12-13T21:04:52.510Z,100.00
2018-12-13T21:07:42.253Z,100.00
2018-12-13T21:10:32.257Z,100.00
2018-12-13T21:13:21.950Z,100.00
2018-12-13T21:16:12.070Z,100.00
2018-12-13T21:19:02.033Z,100.00
2018-12-13T21:21:52.714Z,100.00
2018-12-13T21:24:43.602Z,100.00
2018-12-13T21:27:33.479Z,100.00
2018-12-13T21:30:23.361Z,100.00
2018-12-13T21:33:13.641Z,100.00
2018-12-13T21:36:04.435Z,100.00
2018-12-13T21:38:54.246Z,100.00
2018-12-13T21:41:44.038Z,100.00
2018-12-13T21:44:34.254Z,100.00
2018-12-13T21:47:25.037Z,100.00
2018-12-13T21:50:14.952Z,100.00
2018-12-13T21:53:04.839Z,100.00
2018-12-13T21:55:55.238Z,100.00
2018-12-13T21:58:44.987Z,100.00
2018-12-13T22:01:35.013Z,100.00
2018-12-13T22:04:24.910Z,100.00
2018-12-13T22:07:14.907Z,100.00
2018-12-13T22:10:07.002Z,100.00
2018-12-13T22:12:57.426Z,100.00
2018-12-13T22:15:47.499Z,100.00
2018-12-13T22:18:37.868Z,100.00
2018-12-13T22:21:28.328Z,100.00
2018-12-13T22:24:18.083Z,100.00
2018-12-13T22:27:07.925Z,100.00
2018-12-13T22:29:57.895Z,100.00
2018-12-13T22:32:47.750Z,100.00
2018-12-13T22:35:37.938Z,100.00
2018-12-13T22:38:28.681Z,100.00
2018-12-13T22:41:19.758Z,100.00
2018-12-13T22:44:09.988Z,100.00
2018-12-13T22:47:00.049Z,100.00
2018-12-13T22:49:50.827Z,100.00
2018-12-13T22:52:40.848Z,100.00
2018-12-13T22:55:31.565Z,100.00
2018-12-13T22:58:21.625Z,100.00
2018-12-13T23:01:11.479Z,100.00
2018-12-13T23:04:03.482Z,100.00
2018-12-13T23:06:54.323Z,100.00
2018-12-13T23:09:44.382Z,100.00
2018-12-13T23:12:34.223Z,100.00
2018-12-13T23:15:24.173Z,100.00
2018-12-13T23:18:13.996Z,100.00
2018-12-13T23:21:03.879Z,100.00
2018-12-13T23:23:53.743Z,100.00
2018-12-13T23:26:43.743Z,100.00
2018-12-13T23:29:33.823Z,100.00
2018-12-13T23:32:23.647Z,100.00
2018-12-13T23:35:13.478Z,100.00
2018-12-13T23:38:03.349Z,100.00
2018-12-13T23:40:53.162Z,100.00
2018-12-13T23:43:43.120Z,100.00
2018-12-13T23:46:32.935Z,100.00
2018-12-13T23:49:23.165Z,100.00
2018-12-13T23:52:13.849Z,100.00
2018-12-13T23:55:03.602Z,100.00
2018-12-13T23:57:53.307Z,100.00
